createdAt,value
2022-10-19T00:00:49.089Z,47.17
2022-10-19T00:03:20.696Z,44.15
2022-10-19T00:05:50.351Z,42.05
2022-10-19T00:08:17.583Z,39.03
2022-10-19T00:10:44.698Z,49.40
2022-10-19T00:13:11.834Z,46.83
2022-10-19T00:15:40.443Z,46.05
2022-10-19T00:18:08.557Z,43.42
2022-10-19T00:20:36.941Z,44.05
2022-10-19T00:23:04.471Z,43.67
2022-10-19T00:25:31.955Z,51.35
2022-10-19T00:27:59.074Z,48.63
2022-10-19T00:30:26.176Z,43.80
2022-10-19T00:32:53.296Z,53.40
2022-10-19T00:35:20.403Z,43.03
2022-10-19T00:37:47.517Z,40.38
2022-10-19T00:40:14.623Z,47.85
2022-10-19T00:42:41.798Z,46.55
2022-10-19T00:45:15.667Z,50.28
2022-10-19T00:47:44.868Z,49.30
2022-10-19T00:50:14.302Z,57.67
2022-10-19T00:52:41.859Z,50.45
2022-10-19T00:55:10.810Z,53.33
2022-10-19T00:57:38.312Z,47.53
2022-10-19T01:00:07.260Z,53.53
2022-10-19T01:02:35.342Z,47.38
2022-10-19T01:05:03.935Z,57.72
2022-10-19T01:07:31.728Z,54.20
2022-10-19T01:10:00.195Z,48.45
2022-10-19T01:13:18.123Z,54.95
2022-10-19T01:16:23.252Z,55.55
2022-10-19T01:18:58.003Z,52.03
2022-10-19T01:21:29.017Z,52.58
2022-10-19T01:24:18.010Z,54.05
2022-10-19T01:27:05.376Z,48.85
2022-10-19T01:30:03.100Z,46.20
2022-10-19T01:32:57.076Z,47.15
2022-10-19T01:35:43.590Z,46.13
2022-10-19T01:38:17.639Z,45.50
2022-10-19T01:40:55.254Z,47.50
2022-10-19T01:43:31.207Z,49.70
2022-10-19T01:46:09.253Z,49.55
2022-10-19T01:48:40.970Z,48.55
2022-10-19T01:51:17.326Z,49.75
2022-10-19T01:53:49.480Z,42.92
2022-10-19T01:56:19.926Z,49.55
2022-10-19T01:58:48.775Z,46.35
2022-10-19T02:01:19.860Z,50.38
2022-10-19T02:03:50.131Z,49.28
2022-10-19T02:06:18.282Z,59.83
2022-10-19T02:08:48.815Z,49.40
2022-10-19T02:11:17.880Z,50.17
2022-10-19T02:13:48.943Z,51.08
2022-10-19T02:16:25.086Z,45.70
2022-10-19T02:18:54.939Z,48.63
2022-10-19T02:21:22.549Z,43.53
2022-10-19T02:23:51.906Z,41.50
2022-10-19T02:26:22.140Z,39.92
2022-10-19T02:28:50.427Z,47.35
2022-10-19T02:31:17.670Z,46.08
2022-10-19T02:33:45.027Z,41.30
2022-10-19T02:36:12.539Z,36.33
2022-10-19T02:38:40.784Z,36.28
2022-10-19T02:41:23.037Z,36.80
2022-10-19T02:43:56.942Z,38.22
2022-10-19T02:46:31.921Z,36.30
2022-10-19T02:49:01.054Z,40.47
2022-10-19T02:51:36.932Z,37.30
2022-10-19T02:54:06.090Z,34.30
2022-10-19T02:56:35.189Z,36.55
2022-10-19T02:59:03.344Z,34.70
2022-10-19T03:01:30.526Z,38.22
2022-10-19T03:03:57.647Z,39.58
2022-10-19T03:06:24.853Z,39.83
2022-10-19T03:08:52.026Z,44.72
2022-10-19T03:11:19.221Z,44.38
2022-10-19T03:16:18.458Z,45.83
2022-10-19T03:18:48.930Z,40.88
2022-10-19T03:21:16.382Z,44.83
2022-10-19T03:23:43.540Z,38.47
2022-10-19T03:26:15.022Z,43.30
2022-10-19T03:28:42.526Z,39.55
2022-10-19T03:31:09.786Z,43.22
2022-10-19T03:33:36.899Z,45.80
2022-10-19T03:36:24.357Z,45.75
2022-10-19T03:38:53.538Z,49.58
2022-10-19T03:41:22.082Z,45.28
2022-10-19T03:43:49.436Z,49.17
2022-10-19T03:46:16.883Z,45.90
2022-10-19T03:48:44.114Z,48.28
2022-10-19T03:51:16.912Z,45.35
2022-10-19T03:53:45.314Z,47.47
2022-10-19T03:56:15.031Z,42.25
2022-10-19T03:58:43.987Z,45.40
2022-10-19T04:01:14.491Z,43.67
2022-10-19T04:03:42.104Z,41.83
2022-10-19T04:06:14.817Z,45.40
2022-10-19T04:08:44.590Z,45.00
2022-10-19T04:11:14.867Z,39.55
2022-10-19T04:13:41.977Z,40.35
2022-10-19T04:16:13.278Z,37.97
2022-10-19T04:18:40.479Z,42.70
2022-10-19T04:21:07.658Z,40.35
2022-10-19T04:23:36.106Z,42.13
2022-10-19T04:26:07.962Z,42.58
2022-10-19T04:28:35.180Z,37.88
2022-10-19T04:31:06.208Z,39.05
2022-10-19T04:33:34.414Z,41.40
2022-10-19T04:36:07.309Z,36.55
2022-10-19T04:38:35.063Z,42.03
2022-10-19T04:41:08.259Z,37.28
2022-10-19T04:43:36.070Z,41.40
2022-10-19T04:46:09.212Z,38.15
2022-10-19T04:48:37.823Z,36.13
2022-10-19T04:51:05.339Z,36.53
2022-10-19T04:53:33.057Z,40.60
2022-10-19T04:56:00.562Z,44.28
2022-10-19T04:58:27.642Z,52.63
2022-10-19T05:00:54.809Z,73.90
2022-10-19T05:03:21.911Z,147.07
2022-10-19T05:05:49.754Z,51.08
2022-10-19T05:08:17.203Z,50.15
2022-10-19T05:10:47.659Z,33.83
2022-10-19T05:13:14.983Z,54.33
2022-10-19T05:15:42.142Z,31.70
2022-10-19T05:18:09.232Z,32.05
2022-10-19T05:20:36.347Z,29.90
2022-10-19T05:23:06.426Z,27.80
2022-10-19T05:25:34.595Z,29.70
2022-10-19T05:28:01.683Z,32.75
2022-10-19T05:30:28.882Z,27.42
2022-10-19T05:32:56.038Z,32.70
2022-10-19T05:35:23.165Z,29.65
2022-10-19T05:37:55.154Z,33.05
2022-10-19T05:40:22.271Z,29.70
2022-10-19T05:42:49.327Z,57.92
2022-10-19T05:45:16.421Z,32.22
2022-10-19T05:47:43.502Z,27.35
2022-10-19T05:50:10.577Z,29.80
2022-10-19T05:52:37.666Z,34.78
2022-10-19T05:55:05.372Z,33.25
2022-10-19T05:57:33.192Z,35.60
2022-10-19T06:00:00.603Z,31.83
2022-10-19T06:02:27.699Z,35.75
2022-10-19T06:04:54.820Z,33.83
2022-10-19T06:07:21.885Z,35.30
2022-10-19T06:09:48.979Z,33.45
2022-10-19T06:12:20.449Z,32.28
2022-10-19T06:14:52.816Z,33.35
2022-10-19T06:17:19.908Z,32.60
2022-10-19T06:19:47.018Z,36.10
2022-10-19T06:22:14.151Z,39.30
2022-10-19T06:24:41.237Z,37.00
2022-10-19T06:27:08.388Z,32.40
2022-10-19T06:29:35.680Z,29.10
2022-10-19T06:32:03.666Z,32.30
2022-10-19T06:34:30.974Z,28.48
2022-10-19T06:36:58.211Z,32.83
2022-10-19T06:39:25.356Z,30.85
2022-10-19T06:41:52.459Z,28.88
2022-10-19T06:44:19.747Z,32.45
2022-10-19T06:46:46.952Z,32.95
2022-10-19T06:49:14.709Z,31.17
2022-10-19T06:51:41.946Z,27.98
2022-10-19T06:54:09.263Z,31.42
2022-10-19T06:56:36.470Z,32.25
2022-10-19T06:59:03.682Z,26.42
2022-10-19T07:01:31.085Z,28.00
2022-10-19T07:03:58.214Z,30.02
2022-10-19T07:06:26.914Z,29.02
2022-10-19T07:08:54.046Z,26.23
2022-10-19T07:11:22.424Z,26.45
2022-10-19T07:13:50.394Z,28.08
2022-10-19T07:16:20.968Z,27.05
2022-10-19T07:18:50.783Z,25.70
2022-10-19T07:21:18.951Z,28.10
2022-10-19T07:23:47.415Z,24.45
2022-10-19T07:26:27.417Z,24.73
2022-10-19T07:28:57.838Z,25.42
2022-10-19T07:31:26.679Z,30.58
2022-10-19T07:33:56.135Z,44.28
2022-10-19T07:36:24.638Z,45.15
2022-10-19T07:38:52.289Z,54.22
2022-10-19T07:41:21.807Z,67.20
2022-10-19T07:43:51.136Z,58.13
2022-10-19T07:46:25.352Z,62.35
2022-10-19T07:48:53.383Z,62.78
2022-10-19T07:51:21.670Z,65.45
2022-10-19T07:53:49.129Z,65.10
2022-10-19T07:56:21.497Z,61.60
2022-10-19T07:58:50.701Z,62.25
2022-10-19T08:01:23.899Z,54.78
2022-10-19T08:06:42.550Z,51.90
2022-10-19T08:09:11.464Z,51.42
2022-10-19T08:11:42.791Z,52.05
2022-10-19T08:14:09.912Z,49.70
2022-10-19T08:16:44.155Z,46.63
2022-10-19T08:19:13.492Z,52.28
2022-10-19T08:21:43.607Z,40.10
2022-10-19T08:24:13.290Z,39.80
2022-10-19T08:26:41.054Z,48.85
2022-10-19T08:29:19.610Z,43.00
2022-10-19T08:31:48.193Z,43.00
2022-10-19T08:34:16.330Z,39.17
2022-10-19T08:36:43.543Z,36.40
2022-10-19T08:39:12.650Z,35.55
2022-10-19T08:41:39.739Z,38.33
2022-10-19T08:44:15.848Z,40.97
2022-10-19T08:47:23.310Z,41.58
2022-10-19T08:49:51.401Z,42.65
2022-10-19T08:52:29.586Z,34.28
2022-10-19T08:55:08.985Z,41.22
2022-10-19T08:58:13.510Z,45.17
2022-10-19T09:00:50.142Z,44.40
2022-10-19T09:03:37.827Z,50.72
2022-10-19T09:06:34.198Z,44.40
2022-10-19T09:09:01.439Z,49.95
2022-10-19T09:11:38.508Z,39.33
2022-10-19T09:14:14.900Z,37.22
2022-10-19T09:16:42.720Z,42.58
2022-10-19T09:19:25.597Z,42.63
2022-10-19T09:21:57.363Z,47.85
2022-10-19T09:24:29.765Z,44.72
2022-10-19T09:27:00.801Z,41.25
2022-10-19T09:29:40.086Z,42.17
2022-10-19T09:32:33.538Z,44.17
2022-10-19T09:35:22.282Z,39.00
2022-10-19T09:37:51.198Z,41.92
2022-10-19T09:40:25.284Z,46.30
2022-10-19T09:42:57.346Z,45.60
2022-10-19T09:45:47.774Z,42.38
2022-10-19T09:48:23.811Z,42.50
2022-10-19T09:51:00.128Z,40.00
2022-10-19T09:53:29.218Z,41.97
2022-10-19T09:56:02.876Z,47.92
2022-10-19T09:58:32.946Z,46.03
2022-10-19T10:01:02.477Z,42.55
2022-10-19T10:03:43.566Z,43.70
2022-10-19T10:06:15.296Z,51.72
2022-10-19T10:08:48.518Z,48.35
2022-10-19T10:13:52.786Z,48.92
2022-10-19T10:16:24.850Z,41.17
2022-10-19T10:18:56.913Z,39.35
2022-10-19T10:21:27.038Z,61.33
2022-10-19T10:24:02.976Z,49.05
2022-10-19T10:26:30.149Z,58.17
2022-10-19T10:29:00.662Z,43.42
2022-10-19T10:31:30.157Z,47.72
2022-10-19T10:34:10.963Z,57.88
2022-10-19T10:36:53.635Z,50.25
2022-10-19T10:39:20.852Z,44.17
2022-10-19T10:41:49.021Z,50.63
2022-10-19T10:44:26.487Z,45.15
2022-10-19T10:47:00.115Z,56.00
2022-10-19T10:49:35.551Z,44.05
2022-10-19T10:52:10.746Z,41.58
2022-10-19T10:54:38.811Z,41.40
2022-10-19T10:57:16.647Z,50.15
2022-10-19T10:59:51.881Z,51.15
2022-10-19T11:02:27.797Z,33.50
2022-10-19T11:05:11.742Z,53.63
2022-10-19T11:07:44.157Z,52.53
2022-10-19T11:10:26.666Z,54.05
2022-10-19T11:13:18.313Z,49.23
2022-10-19T11:16:06.699Z,50.88
2022-10-19T11:18:46.063Z,49.15
2022-10-19T11:21:24.063Z,56.22
2022-10-19T11:24:16.526Z,50.10
2022-10-19T11:27:18.407Z,48.80
2022-10-19T11:29:57.625Z,49.67
2022-10-19T11:32:35.112Z,42.60
2022-10-19T11:35:17.432Z,59.53
2022-10-19T11:38:17.398Z,48.97
2022-10-19T11:41:26.403Z,46.47
2022-10-19T11:44:20.753Z,49.97
2022-10-19T11:47:14.058Z,43.28
2022-10-19T11:49:50.255Z,41.70
2022-10-19T11:52:46.278Z,44.47
2022-10-19T11:55:40.809Z,43.65
2022-10-19T11:58:38.102Z,43.13
2022-10-19T12:01:23.722Z,47.55
2022-10-19T12:04:11.010Z,46.85
2022-10-19T12:06:43.826Z,45.63
2022-10-19T12:09:35.425Z,39.45
2022-10-19T12:12:19.522Z,42.67
2022-10-19T12:14:51.607Z,43.10
2022-10-19T12:17:26.399Z,46.13
2022-10-19T12:19:59.501Z,38.38
2022-10-19T12:24:59.669Z,42.10
2022-10-19T12:27:47.672Z,39.28
2022-10-19T12:30:23.563Z,39.50
2022-10-19T12:33:14.606Z,48.05
2022-10-19T12:35:59.639Z,37.55
2022-10-19T12:38:40.892Z,34.97
2022-10-19T12:42:00.947Z,36.92
2022-10-19T12:44:39.791Z,45.03
2022-10-19T12:47:11.852Z,35.28
2022-10-19T12:49:45.786Z,39.85
2022-10-19T12:52:15.275Z,38.83
2022-10-19T12:54:43.970Z,35.88
2022-10-19T12:57:29.959Z,37.78
2022-10-19T13:00:04.241Z,35.50
2022-10-19T13:02:35.597Z,35.47
2022-10-19T13:05:04.358Z,36.22
2022-10-19T13:07:36.056Z,36.47
2022-10-19T13:10:06.894Z,39.90
2022-10-19T13:12:46.286Z,40.92
2022-10-19T13:15:39.384Z,36.67
2022-10-19T13:18:13.971Z,39.25
2022-10-19T13:20:50.268Z,32.80
2022-10-19T13:23:17.649Z,39.40
2022-10-19T13:25:44.814Z,37.55
2022-10-19T13:28:17.790Z,37.45
2022-10-19T13:30:44.878Z,36.45
2022-10-19T13:33:28.435Z,35.00
2022-10-19T13:35:58.325Z,30.08
2022-10-19T13:38:26.327Z,36.15
2022-10-19T13:41:25.559Z,35.33
2022-10-19T13:44:01.723Z,28.48
2022-10-19T13:46:28.780Z,42.33
2022-10-19T13:48:58.701Z,44.30
2022-10-19T13:51:46.634Z,38.58
2022-10-19T13:54:37.882Z,38.03
2022-10-19T13:57:24.002Z,25.42
2022-10-19T14:00:15.756Z,25.63
2022-10-19T14:03:22.429Z,24.17
2022-10-19T14:06:13.256Z,30.30
2022-10-19T14:09:21.493Z,29.13
2022-10-19T14:11:52.652Z,31.85
2022-10-19T14:14:24.253Z,28.65
2022-10-19T14:17:03.065Z,35.78
2022-10-19T14:19:43.710Z,28.65
2022-10-19T14:22:37.231Z,26.35
2022-10-19T14:27:43.571Z,27.45
2022-10-19T14:30:25.458Z,27.80
2022-10-19T14:32:56.836Z,23.05
2022-10-19T14:35:38.273Z,25.77
2022-10-19T14:38:08.481Z,24.40
2022-10-19T14:40:41.068Z,22.65
2022-10-19T14:43:31.582Z,25.20
2022-10-19T14:46:07.558Z,18.95
2022-10-19T14:48:36.540Z,21.50
2022-10-19T14:51:09.941Z,23.42
2022-10-19T14:53:42.501Z,23.40
2022-10-19T14:56:21.183Z,21.95
2022-10-19T14:59:02.660Z,25.15
2022-10-19T15:01:30.058Z,22.52
2022-10-19T15:03:57.352Z,27.75
2022-10-19T15:06:29.983Z,23.33
2022-10-19T15:09:03.830Z,25.45
2022-10-19T15:11:37.071Z,27.40
2022-10-19T15:14:12.007Z,26.80
2022-10-19T15:16:39.115Z,21.95
2022-10-19T15:19:18.318Z,23.30
2022-10-19T15:22:05.544Z,19.38
2022-10-19T15:24:32.714Z,22.02
2022-10-19T15:27:19.216Z,22.27
2022-10-19T15:29:57.019Z,20.63
2022-10-19T15:32:29.566Z,23.63
2022-10-19T15:34:56.742Z,22.20
2022-10-19T15:39:56.906Z,21.98
2022-10-19T15:42:36.694Z,17.85
2022-10-19T15:45:24.986Z,24.50
2022-10-19T15:48:20.930Z,21.95
2022-10-19T15:50:50.335Z,24.27
2022-10-19T15:53:18.990Z,23.33
2022-10-19T15:55:46.334Z,22.15
2022-10-19T15:58:14.263Z,18.05
2022-10-19T16:00:41.891Z,20.65
2022-10-19T16:03:09.209Z,22.08
2022-10-19T16:05:36.638Z,22.23
2022-10-19T16:08:07.824Z,24.27
2022-10-19T16:10:37.279Z,23.55
2022-10-19T16:13:04.510Z,21.67
2022-10-19T16:15:31.659Z,22.80
2022-10-19T16:18:00.005Z,20.20
2022-10-19T16:20:29.185Z,19.38
2022-10-19T16:22:56.944Z,23.30
2022-10-19T16:25:24.411Z,21.58
2022-10-19T16:27:51.579Z,23.73
2022-10-19T16:30:18.865Z,23.55
2022-10-19T16:32:48.531Z,20.25
2022-10-19T16:35:15.806Z,22.88
2022-10-19T16:37:42.993Z,29.30
2022-10-19T16:40:10.454Z,21.90
2022-10-19T16:42:37.910Z,23.55
2022-10-19T16:45:05.561Z,23.67
2022-10-19T16:47:32.687Z,27.42
2022-10-19T16:50:01.510Z,27.20
2022-10-19T16:52:31.386Z,25.90
2022-10-19T16:54:59.719Z,24.42
2022-10-19T16:57:26.918Z,26.02
2022-10-19T16:59:54.397Z,31.25
2022-10-19T17:02:22.210Z,25.52
2022-10-19T17:04:49.347Z,29.13
2022-10-19T17:07:16.742Z,28.55
2022-10-19T17:09:44.034Z,26.65
2022-10-19T17:12:11.697Z,27.15
2022-10-19T17:14:40.834Z,29.88
2022-10-19T17:17:09.513Z,26.35
2022-10-19T17:19:37.334Z,30.67
2022-10-19T17:22:05.410Z,30.52
2022-10-19T17:24:32.754Z,29.48
2022-10-19T17:27:02.814Z,31.08
2022-10-19T17:29:30.049Z,32.72
2022-10-19T17:31:58.062Z,26.85
2022-10-19T17:34:25.372Z,26.42
2022-10-19T17:36:52.472Z,30.73
2022-10-19T17:39:25.733Z,32.75
2022-10-19T17:42:01.204Z,30.60
2022-10-19T17:44:29.954Z,29.10
2022-10-19T17:46:57.129Z,32.80
2022-10-19T17:49:24.306Z,28.40
2022-10-19T17:51:53.183Z,27.73
2022-10-19T17:54:20.598Z,30.63
2022-10-19T17:56:47.754Z,39.03
2022-10-19T17:59:15.016Z,37.15
2022-10-19T18:01:42.159Z,34.78
2022-10-19T18:04:09.346Z,36.03
2022-10-19T18:06:38.199Z,32.70
2022-10-19T18:09:08.130Z,32.17
2022-10-19T18:11:43.734Z,30.60
2022-10-19T18:14:12.487Z,31.42
2022-10-19T18:16:45.449Z,29.42
2022-10-19T18:19:16.911Z,34.00
2022-10-19T18:21:46.035Z,30.27
2022-10-19T18:24:19.181Z,38.45
2022-10-19T18:26:47.997Z,35.72
2022-10-19T18:29:17.815Z,35.53
2022-10-19T18:31:49.054Z,37.30
2022-10-19T18:34:16.283Z,35.55
2022-10-19T18:36:44.254Z,31.10
2022-10-19T18:39:13.312Z,32.63
2022-10-19T18:41:41.287Z,41.40
2022-10-19T18:44:11.405Z,37.75
2022-10-19T18:46:38.968Z,32.70
2022-10-19T18:49:08.346Z,34.60
2022-10-19T18:51:36.046Z,39.60
2022-10-19T18:54:03.621Z,35.00
2022-10-19T18:56:30.793Z,35.55
2022-10-19T18:58:57.887Z,37.22
2022-10-19T19:01:27.232Z,33.50
2022-10-19T19:04:04.294Z,44.60
2022-10-19T19:06:33.053Z,41.80
2022-10-19T19:09:02.082Z,38.47
2022-10-19T19:11:35.848Z,41.03
2022-10-19T19:14:13.739Z,48.80
2022-10-19T19:16:43.246Z,55.45
2022-10-19T19:19:13.240Z,42.25
2022-10-19T19:21:43.836Z,34.35
2022-10-19T19:24:17.104Z,35.28
2022-10-19T19:26:48.285Z,39.45
2022-10-19T19:29:16.694Z,34.88
2022-10-19T19:31:44.234Z,34.20
2022-10-19T19:34:11.710Z,39.25
2022-10-19T19:39:15.597Z,38.40
2022-10-19T19:41:43.318Z,38.88
2022-10-19T19:44:10.731Z,34.90
2022-10-19T19:46:38.022Z,36.78
2022-10-19T19:49:05.406Z,39.33
2022-10-19T19:51:33.577Z,37.13
2022-10-19T19:54:00.852Z,43.25
2022-10-19T19:56:28.992Z,39.33
2022-10-19T19:58:57.791Z,36.67
2022-10-19T20:01:26.069Z,43.35
2022-10-19T20:03:53.391Z,45.95
2022-10-19T20:06:24.977Z,42.28
2022-10-19T20:08:54.886Z,44.93
2022-10-19T20:11:23.625Z,38.25
2022-10-19T20:13:51.023Z,47.65
2022-10-19T20:16:26.546Z,39.90
2022-10-19T20:19:00.655Z,41.22
2022-10-19T20:21:27.817Z,39.58
2022-10-19T20:23:55.083Z,37.70
2022-10-19T20:26:23.932Z,41.42
2022-10-19T20:28:51.071Z,43.15
2022-10-19T20:31:18.997Z,45.83
2022-10-19T20:33:49.720Z,50.55
2022-10-19T20:36:22.755Z,42.03
2022-10-19T20:38:56.713Z,46.33
2022-10-19T20:41:25.670Z,44.90
2022-10-19T20:43:53.765Z,40.13
2022-10-19T20:46:23.499Z,40.55
2022-10-19T20:48:51.351Z,50.80
2022-10-19T20:51:24.895Z,44.22
2022-10-19T20:53:55.993Z,39.92
2022-10-19T20:56:26.138Z,39.70
2022-10-19T20:58:58.429Z,41.55
2022-10-19T21:01:26.652Z,36.65
2022-10-19T21:03:56.257Z,39.65
2022-10-19T21:06:25.147Z,45.35
2022-10-19T21:08:52.767Z,39.55
2022-10-19T21:11:25.962Z,40.88
2022-10-19T21:13:55.260Z,44.45
2022-10-19T21:16:23.894Z,39.53
2022-10-19T21:18:51.004Z,42.33
2022-10-19T21:21:19.326Z,43.03
2022-10-19T21:23:49.121Z,41.85
2022-10-19T21:26:17.305Z,39.75
2022-10-19T21:28:48.843Z,38.63
2022-10-19T21:31:17.541Z,33.92
2022-10-19T21:33:45.517Z,38.97
2022-10-19T21:36:14.299Z,40.10
2022-10-19T21:38:42.702Z,39.35
2022-10-19T21:41:20.858Z,36.47
2022-10-19T21:43:51.012Z,36.55
2022-10-19T21:46:19.990Z,36.15
2022-10-19T21:48:47.629Z,37.85
2022-10-19T21:51:14.693Z,36.28
2022-10-19T21:53:41.759Z,41.42
2022-10-19T21:56:08.909Z,38.53
2022-10-19T21:58:35.982Z,38.75
2022-10-19T22:01:07.458Z,41.15
2022-10-19T22:03:34.622Z,40.97
2022-10-19T22:06:01.811Z,36.38
2022-10-19T22:08:28.973Z,42.58
2022-10-19T22:10:56.441Z,40.17
2022-10-19T22:13:23.541Z,37.58
2022-10-19T22:15:50.691Z,38.38
2022-10-19T22:18:17.747Z,36.85
2022-10-19T22:20:44.830Z,37.05
2022-10-19T22:23:11.922Z,42.95
2022-10-19T22:25:39.072Z,33.50
2022-10-19T22:28:06.158Z,37.17
2022-10-19T22:30:33.320Z,34.95
2022-10-19T22:33:00.438Z,35.33
2022-10-19T22:35:27.515Z,36.53
2022-10-19T22:37:54.655Z,35.58
2022-10-19T22:40:21.996Z,42.20
2022-10-19T22:42:49.053Z,33.17
2022-10-19T22:45:16.195Z,39.95
2022-10-19T22:47:44.272Z,37.40
2022-10-19T22:50:11.838Z,37.00
2022-10-19T22:52:39.147Z,46.88
2022-10-19T22:55:06.592Z,40.08
2022-10-19T22:57:33.658Z,37.97
2022-10-19T23:00:00.720Z,44.05
2022-10-19T23:02:29.182Z,47.60
2022-10-19T23:04:56.260Z,43.70
2022-10-19T23:07:23.334Z,39.03
2022-10-19T23:09:50.437Z,44.10
2022-10-19T23:12:17.548Z,39.83
2022-10-19T23:14:44.602Z,46.95
2022-10-19T23:17:11.781Z,42.35
2022-10-19T23:19:38.865Z,40.55
2022-10-19T23:22:05.931Z,42.22
2022-10-19T23:24:33.003Z,36.78
2022-10-19T23:27:00.207Z,43.58
2022-10-19T23:29:27.308Z,42.30
2022-10-19T23:31:54.390Z,37.63
2022-10-19T23:34:21.479Z,34.28
2022-10-19T23:36:48.587Z,36.42
2022-10-19T23:39:15.763Z,41.75
2022-10-19T23:41:42.852Z,40.85
2022-10-19T23:44:10.548Z,38.10
2022-10-19T23:46:37.675Z,50.55
2022-10-19T23:49:04.873Z,42.80
2022-10-19T23:51:32.111Z,41.55
2022-10-19T23:53:59.406Z,42.97
2022-10-19T23:56:28.486Z,43.17
2022-10-19T23:58:56.568Z,37.13
